Aérodrome :
LOGIN :

S'inscrire | Disclaimer

   EN    FR    IT 

 










Légende :    VFR   VFR Marginal   IFR   IFR Intensif   IFR Très Intensif
Visi : 
Plafond : 
>= 8 km
>= 3000ft
5 à 8 km
1000 à 3000 ft
1500m à 5 km
500 à 1000 ft
800 à 1500m
200 à 500 ft
< 800m
< 200 ft
Symboles :   Orages  Brouillard  Fortes neiges  Fortes précipitations  Vent > 20 kt
SIGMETs :   Divers  Orages  Givrage  Turbulence  Onde Orograph.  Cendres Volcan.







- Altitude de l'aérodrome : 194 ft


EBCV - Chièvres

DERNIER METAR :
  • 211655Z AUTO 20006KT 9999 FEW051/// SCT058/// 12/09 Q1010 BLU

METARs EXPIRÉS :
  • 211625Z AUTO 22010KT 9999 BKN047/// 13/09 Q1010 BLU
  • 211621Z AUTO 22014KT 9999 BKN049/// 13/09 Q1010 BLU
  • 211610Z AUTO 21016G27KT 4700 +RA BKN045/// 13/08 Q1010 GRN
  • 211555Z AUTO 21012KT 9999 FEW052/// BKN082/// 15/08 Q1010 BLU
  • 211525Z AUTO 22014KT 9999 BKN053/// 16/07 Q1010 BLU
  • 211455Z AUTO 22016KT 9999 SCT054/// 16/08 Q1010 BLU
  • 211425Z AUTO 22018KT 9999 FEW046/// 16/08 Q1010 BLU

TAF TAF EBCV
Valide du 21 à 13h jusqu'au 21 à 22h UTC


211141Z 2113/2122 22015KT 9999 SCT/035
PROB40
TEMPO 2113/2117 22020G33KT BY EBWM
Pas de NOTAMs connus pour ce terrain.



MET'MAP, la Météo Aéronautique d'un coup d'oeil ! - Copyright ORBIFLY Décembre 2007 - Disclaimer

ORBIFLY MET'MAP TEAM :

Programmation & Développement : Alexandra Zaïnal
Conception & Développement : Baudouin d'Aumeries
Co-Programmation & Développement : Marc-Olivier Méhu
Soutien technique & logistique : Manuel Goepfert

Contact : metmap@orbifly.com




SOURCES & CREDITS :

   NOAA